Time,TemperatureF,DewpointF,PressureIn,WindDirection,WindDirectionDegrees,WindSpeedMPH,WindSpeedGustMPH,Humidity,HourlyPrecipIn,Conditions,Clouds,dailyrainin,SolarRadiationWatts/m^2,SoftwareType,DateUTC
2016-02-10 00:09:00,33.3,28.4,29.60,SW,214,4.0,4.0,82,0.00,,,0.00,0.0,meteobridge,2016-02-10 05:09:00,
2016-02-10 00:14:00,33.1,28.4,29.61,SW,215,0.9,4.0,83,0.00,,,0.00,0.0,meteobridge,2016-02-10 05:14:00,
2016-02-10 00:19:00,33.3,28.6,29.61,SW,214,2.0,4.0,83,0.00,,,0.00,0.0,meteobridge,2016-02-10 05:19:00,
2016-02-10 00:24:00,33.3,28.9,29.60,SW,214,0.9,3.0,84,0.00,,,0.00,0.0,meteobridge,2016-02-10 05:24:00,
2016-02-10 00:29:00,33.4,29.1,29.60,SW,214,0.9,1.0,84,0.00,,,0.00,0.0,meteobridge,2016-02-10 05:29:00,
2016-02-10 00:34:00,33.4,29.1,29.60,SW,214,0.9,2.0,84,0.00,,,0.00,0.0,meteobridge,2016-02-10 05:34:00,
2016-02-10 00:39:00,33.3,28.6,29.60,SW,214,2.0,3.0,83,0.00,,,0.00,0.0,meteobridge,2016-02-10 05:39:00,
2016-02-10 00:44:00,33.3,28.9,29.60,SW,214,2.0,2.0,84,0.00,,,0.00,0.0,meteobridge,2016-02-10 05:44:00,
2016-02-10 00:49:00,33.3,28.9,29.60,South,177,0.9,4.0,84,0.00,,,0.00,0.0,meteobridge,2016-02-10 05:49:00,
2016-02-10 00:54:00,33.3,28.9,29.60,South,177,2.0,4.0,84,0.00,,,0.00,0.0,meteobridge,2016-02-10 05:54:00,
2016-02-10 00:59:00,33.3,28.9,29.60,SSW,206,4.0,4.0,84,0.00,,,0.00,0.0,meteobridge,2016-02-10 05:59:00,
2016-02-10 01:04:00,33.3,28.6,29.60,South,182,2.9,5.0,83,0.00,,,0.00,0.0,meteobridge,2016-02-10 06:04:00,
2016-02-10 01:09:00,33.3,28.6,29.60,ESE,114,2.9,5.0,83,0.00,,,0.00,0.0,meteobridge,2016-02-10 06:09:00,
2016-02-10 01:14:00,33.3,28.6,29.60,SE,129,2.0,5.0,83,0.00,,,0.00,0.0,meteobridge,2016-02-10 06:14:00,
2016-02-10 01:19:00,33.3,28.4,29.60,SSE,162,2.0,4.0,82,0.00,,,0.00,0.0,meteobridge,2016-02-10 06:19:00,
2016-02-10 01:25:00,33.1,28.2,29.60,SE,134,2.9,4.0,82,0.00,,,0.00,0.0,meteobridge,2016-02-10 06:25:00,
2016-02-10 01:30:00,33.1,28.4,29.60,SE,124,0.9,5.0,83,0.00,,,0.00,0.0,meteobridge,2016-02-10 06:30:00,
2016-02-10 01:35:00,33.4,29.1,29.60,SSW,205,2.9,4.0,84,0.00,,,0.00,0.0,meteobridge,2016-02-10 06:35:00,
2016-02-10 01:40:00,33.3,29.3,29.60,SSW,213,4.9,5.0,85,0.00,,,0.00,0.0,meteobridge,2016-02-10 06:40:00,
2016-02-10 01:45:00,32.9,29.1,29.60,SSW,205,6.0,6.0,86,0.00,,,0.00,0.0,meteobridge,2016-02-10 06:45:00,
2016-02-10 01:50:00,32.7,28.9,29.60,South,191,4.9,6.0,86,0.00,,,0.00,0.0,meteobridge,2016-02-10 06:50:00,
2016-02-10 01:55:00,32.7,29.3,29.60,SSW,201,4.0,6.0,87,0.00,,,0.00,0.0,meteobridge,2016-02-10 06:55:00,
2016-02-10 02:00:00,32.7,29.5,29.60,SSW,198,4.0,6.0,88,0.00,,,0.00,0.0,meteobridge,2016-02-10 07:00:00,
2016-02-10 02:05:00,32.5,29.3,29.60,SSW,209,4.0,5.0,88,0.00,,,0.00,0.0,meteobridge,2016-02-10 07:05:00,
2016-02-10 02:10:00,32.9,30.0,29.59,SSW,204,2.0,3.0,89,0.00,,,0.00,0.0,meteobridge,2016-02-10 07:10:00,
2016-02-10 02:15:00,32.7,29.8,29.59,South,188,4.9,5.0,89,0.00,,,0.00,0.0,meteobridge,2016-02-10 07:15:00,
2016-02-10 02:20:00,32.7,29.8,29.59,SSW,202,2.9,4.0,89,0.00,,,0.00,0.0,meteobridge,2016-02-10 07:20:00,
2016-02-10 02:25:00,32.7,29.8,29.59,SSW,193,2.0,4.0,89,0.00,,,0.00,0.0,meteobridge,2016-02-10 07:25:00,
2016-02-10 02:30:00,32.7,30.2,29.59,SW,216,4.9,7.0,90,0.00,,,0.00,0.0,meteobridge,2016-02-10 07:30:00,
2016-02-10 02:35:00,32.7,30.2,29.59,South,175,2.0,3.0,90,0.00,,,0.00,0.0,meteobridge,2016-02-10 07:35:00,
2016-02-10 02:40:00,32.7,30.2,29.59,WSW,239,2.9,4.0,90,0.00,,,0.00,0.0,meteobridge,2016-02-10 07:40:00,
2016-02-10 02:45:00,32.7,30.4,29.59,SSW,198,2.9,4.0,91,0.00,,,0.00,0.0,meteobridge,2016-02-10 07:45:00,
2016-02-10 02:56:00,32.7,30.4,29.59,SSW,205,2.9,5.0,91,0.00,,,0.00,0.0,meteobridge,2016-02-10 07:56:00,
2016-02-10 03:01:00,32.5,30.2,29.59,SSW,199,6.0,6.0,91,0.00,,,0.00,0.0,meteobridge,2016-02-10 08:01:00,
2016-02-10 03:06:00,32.5,30.2,29.59,South,184,4.0,5.0,91,0.00,,,0.00,0.0,meteobridge,2016-02-10 08:06:00,
2016-02-10 03:11:00,32.5,30.6,29.59,SSW,193,4.9,6.0,92,0.00,,,0.00,0.0,meteobridge,2016-02-10 08:11:00,
2016-02-10 03:16:00,32.4,30.4,29.59,South,181,6.0,8.0,92,0.00,,,0.00,0.0,meteobridge,2016-02-10 08:16:00,
2016-02-10 03:21:00,32.7,30.7,29.59,SSW,193,4.9,6.0,92,0.00,,,0.00,0.0,meteobridge,2016-02-10 08:21:00,
2016-02-10 03:26:00,32.9,30.9,29.59,SSW,207,2.0,5.0,92,0.00,,,0.00,0.0,meteobridge,2016-02-10 08:26:00,
2016-02-10 03:31:00,33.1,31.1,29.59,SW,219,4.0,5.0,92,0.00,,,0.00,0.0,meteobridge,2016-02-10 08:31:00,
2016-02-10 03:36:00,33.3,31.1,29.59,South,191,4.0,5.0,92,0.00,,,0.00,0.0,meteobridge,2016-02-10 08:36:00,
2016-02-10 03:41:00,33.4,31.3,29.59,WSW,256,4.9,7.0,92,0.00,,,0.00,0.0,meteobridge,2016-02-10 08:41:00,
2016-02-10 03:46:00,33.3,31.1,29.59,SW,236,6.9,9.0,92,0.00,,,0.00,0.0,meteobridge,2016-02-10 08:46:00,
2016-02-10 03:51:00,33.3,31.1,29.59,WNW,284,6.0,8.0,92,0.00,,,0.00,0.0,meteobridge,2016-02-10 08:51:00,
2016-02-10 03:56:00,33.3,31.1,29.59,WSW,256,6.0,10.0,92,0.00,,,0.00,0.0,meteobridge,2016-02-10 08:56:00,
2016-02-10 04:06:00,33.1,31.1,29.59,WNW,288,4.0,11.0,92,0.00,,,0.00,0.0,meteobridge,2016-02-10 09:06:00,
2016-02-10 04:11:00,33.3,31.1,29.59,West,270,4.9,9.0,92,0.00,,,0.00,0.0,meteobridge,2016-02-10 09:11:00,
2016-02-10 04:16:00,33.3,30.9,29.59,WSW,248,6.0,9.0,91,0.00,,,0.00,0.0,meteobridge,2016-02-10 09:16:00,
2016-02-10 04:21:00,33.3,30.9,29.59,West,264,4.9,7.0,91,0.00,,,0.00,0.0,meteobridge,2016-02-10 09:21:00,
2016-02-10 04:26:00,33.3,30.9,29.59,West,266,8.9,9.0,91,0.00,,,0.00,0.0,meteobridge,2016-02-10 09:26:00,
2016-02-10 04:31:00,33.3,30.9,29.59,West,270,4.0,9.0,91,0.00,,,0.00,0.0,meteobridge,2016-02-10 09:31:00,
2016-02-10 04:36:00,33.3,30.9,29.59,SW,217,4.9,9.0,91,0.00,,,0.00,0.0,meteobridge,2016-02-10 09:36:00,
2016-02-10 04:46:00,33.4,30.7,29.59,WSW,252,4.0,9.0,90,0.00,,,0.00,0.0,meteobridge,2016-02-10 09:46:00,
2016-02-10 04:51:00,33.4,30.6,29.59,WSW,243,6.0,10.0,89,0.00,,,0.00,0.0,meteobridge,2016-02-10 09:51:00,
2016-02-10 04:56:00,33.4,30.6,29.59,WNW,295,4.0,10.0,89,0.00,,,0.00,0.0,meteobridge,2016-02-10 09:56:00,
2016-02-10 05:01:00,33.6,30.4,29.59,West,269,6.9,9.0,88,0.00,,,0.00,0.0,meteobridge,2016-02-10 10:01:00,
2016-02-10 05:06:00,33.6,30.4,29.59,WSW,248,8.1,10.0,88,0.00,,,0.00,0.0,meteobridge,2016-02-10 10:06:00,
2016-02-10 05:11:00,33.6,30.2,29.59,WSW,254,8.1,9.0,87,0.00,,,0.00,0.0,meteobridge,2016-02-10 10:11:00,
2016-02-10 05:16:00,33.8,30.4,29.59,WSW,242,6.9,8.0,87,0.00,,,0.00,0.0,meteobridge,2016-02-10 10:16:00,
2016-02-10 05:21:00,33.8,30.4,29.59,WSW,250,4.9,6.0,87,0.00,,,0.00,0.0,meteobridge,2016-02-10 10:21:00,
2016-02-10 05:26:00,34.0,30.6,29.59,SW,233,8.1,9.0,87,0.00,,,0.00,0.0,meteobridge,2016-02-10 10:26:00,
2016-02-10 05:31:00,34.2,30.4,29.59,WSW,250,4.9,8.0,86,0.00,,,0.00,0.0,meteobridge,2016-02-10 10:31:00,
2016-02-10 05:37:00,34.0,30.0,29.59,West,270,8.9,10.0,85,0.00,,,0.00,0.0,meteobridge,2016-02-10 10:37:00,
2016-02-10 05:42:00,34.0,29.7,29.59,WSW,245,6.9,8.0,84,0.00,,,0.00,0.0,meteobridge,2016-02-10 10:42:00,
2016-02-10 05:47:00,34.0,29.7,29.59,West,272,6.0,8.0,84,0.00,,,0.00,0.0,meteobridge,2016-02-10 10:47:00,
2016-02-10 05:52:00,34.0,29.3,29.59,West,272,6.9,9.0,83,0.00,,,0.00,0.0,meteobridge,2016-02-10 10:52:00,
2016-02-10 05:57:00,34.0,29.3,29.59,WSW,243,8.1,11.0,83,0.00,,,0.00,0.0,meteobridge,2016-02-10 10:57:00,
2016-02-10 06:02:00,34.0,29.3,29.60,West,274,6.0,7.0,83,0.00,,,0.00,0.0,meteobridge,2016-02-10 11:02:00,
2016-02-10 06:07:00,34.0,29.3,29.60,WSW,241,6.0,10.0,83,0.00,,,0.00,0.0,meteobridge,2016-02-10 11:07:00,
2016-02-10 06:12:00,34.0,29.3,29.60,West,272,6.0,12.0,83,0.00,,,0.00,0.0,meteobridge,2016-02-10 11:12:00,
2016-02-10 06:17:00,34.2,29.5,29.59,WSW,251,6.9,11.0,83,0.00,,,0.00,0.0,meteobridge,2016-02-10 11:17:00,
2016-02-10 06:22:00,34.0,29.3,29.59,West,266,8.9,11.0,83,0.00,,,0.00,0.0,meteobridge,2016-02-10 11:22:00,
2016-02-10 06:27:00,34.0,29.3,29.60,WSW,254,8.9,10.0,83,0.00,,,0.00,0.0,meteobridge,2016-02-10 11:27:00,
2016-02-10 06:32:00,34.2,29.5,29.59,West,259,2.9,10.0,83,0.00,,,0.00,0.0,meteobridge,2016-02-10 11:32:00,
2016-02-10 06:37:00,34.3,30.0,29.60,WSW,255,4.9,8.0,84,0.00,,,0.00,0.0,meteobridge,2016-02-10 11:37:00,
2016-02-10 06:42:00,34.3,30.0,29.60,West,263,4.0,7.0,84,0.00,,,0.00,0.0,meteobridge,2016-02-10 11:42:00,
2016-02-10 06:47:00,34.3,29.7,29.60,WSW,257,6.9,10.0,83,0.00,,,0.00,0.0,meteobridge,2016-02-10 11:47:00,
2016-02-10 06:52:00,34.2,29.8,29.60,WSW,240,6.9,10.0,84,0.00,,,0.00,0.0,meteobridge,2016-02-10 11:52:00,
2016-02-10 06:57:00,34.2,29.8,29.60,SW,232,4.0,9.0,84,0.00,,,0.00,0.0,meteobridge,2016-02-10 11:57:00,
2016-02-10 07:02:00,34.3,30.0,29.61,WNW,284,8.9,11.0,84,0.00,,,0.00,0.0,meteobridge,2016-02-10 12:02:00,
2016-02-10 07:12:00,34.3,30.0,29.61,WNW,288,6.9,10.0,84,0.00,,,0.00,0.0,meteobridge,2016-02-10 12:12:00,
2016-02-10 07:22:00,34.3,30.0,29.61,WNW,301,6.0,9.0,84,0.00,,,0.00,9.0,meteobridge,2016-02-10 12:22:00,
2016-02-10 07:27:00,34.3,30.0,29.61,NW,307,8.1,9.0,84,0.00,,,0.00,12.0,meteobridge,2016-02-10 12:27:00,
2016-02-10 07:32:00,34.5,30.2,29.61,WNW,285,6.9,10.0,84,0.00,,,0.00,12.0,meteobridge,2016-02-10 12:32:00,
2016-02-10 07:43:00,34.3,30.0,29.61,WNW,293,4.9,10.0,84,0.00,,,0.00,16.0,meteobridge,2016-02-10 12:43:00,
2016-02-10 07:48:00,34.5,30.6,29.62,NW,307,8.1,11.0,85,0.00,,,0.00,25.0,meteobridge,2016-02-10 12:48:00,
2016-02-10 07:53:00,34.3,30.4,29.62,WNW,291,8.1,9.0,85,0.00,,,0.00,26.0,meteobridge,2016-02-10 12:53:00,
2016-02-10 07:58:00,34.5,30.7,29.62,WNW,288,2.9,6.0,86,0.00,,,0.00,32.0,meteobridge,2016-02-10 12:58:00,
2016-02-10 08:08:00,34.5,30.7,29.62,WNW,290,6.0,8.0,86,0.00,,,0.00,35.0,meteobridge,2016-02-10 13:08:00,
2016-02-10 08:13:00,34.5,30.7,29.62,WNW,297,6.0,8.0,86,0.00,,,0.00,37.0,meteobridge,2016-02-10 13:13:00,
2016-02-10 08:18:00,34.5,30.7,29.62,NNW,347,11.0,11.0,86,0.00,,,0.00,42.0,meteobridge,2016-02-10 13:18:00,
2016-02-10 08:23:00,34.9,30.6,29.62,NW,311,6.9,14.0,84,0.00,,,0.00,53.0,meteobridge,2016-02-10 13:23:00,
2016-02-10 08:28:00,35.1,30.4,29.62,NW,313,6.9,13.0,83,0.00,,,0.00,63.0,meteobridge,2016-02-10 13:28:00,
2016-02-10 08:33:00,35.1,30.4,29.62,NW,313,11.0,12.0,83,0.00,,,0.00,65.0,meteobridge,2016-02-10 13:33:00,
2016-02-10 08:38:00,35.1,30.4,29.62,NW,326,8.9,10.0,83,0.00,,,0.00,77.0,meteobridge,2016-02-10 13:38:00,
2016-02-10 08:43:00,35.1,30.4,29.62,NW,311,6.0,12.0,83,0.00,,,0.00,76.0,meteobridge,2016-02-10 13:43:00,
2016-02-10 08:49:00,35.2,30.4,29.63,NW,318,13.0,15.0,82,0.00,,,0.00,81.0,meteobridge,2016-02-10 13:49:00,
2016-02-10 08:59:00,34.7,30.0,29.63,NW,309,6.0,13.0,83,0.00,,,0.00,95.0,meteobridge,2016-02-10 13:59:00,
2016-02-10 09:04:00,35.1,30.7,29.63,NW,322,4.0,9.0,84,0.00,,,0.00,95.0,meteobridge,2016-02-10 14:04:00,
2016-02-10 09:09:00,35.2,30.6,29.63,NW,309,4.9,10.0,83,0.00,,,0.00,97.0,meteobridge,2016-02-10 14:09:00,
2016-02-10 09:14:00,35.1,29.8,29.63,NW,320,13.0,14.0,81,0.00,,,0.00,95.0,meteobridge,2016-02-10 14:14:00,
2016-02-10 09:24:00,35.4,29.8,29.63,NW,316,8.1,14.0,80,0.00,,,0.00,93.0,meteobridge,2016-02-10 14:24:00,
2016-02-10 09:29:00,35.2,29.3,29.63,NNW,329,13.0,14.0,79,0.00,,,0.00,95.0,meteobridge,2016-02-10 14:29:00,
2016-02-10 09:34:00,35.4,29.3,29.63,NW,316,6.9,12.0,78,0.00,,,0.00,100.0,meteobridge,2016-02-10 14:34:00,
2016-02-10 09:39:00,35.6,29.7,29.63,NW,321,8.9,11.0,79,0.00,,,0.00,97.0,meteobridge,2016-02-10 14:39:00,
2016-02-10 09:44:00,35.8,29.8,29.63,NW,308,6.9,13.0,79,0.01,,,0.01,97.0,meteobridge,2016-02-10 14:44:00,
2016-02-10 09:49:00,35.6,29.7,29.63,NNW,336,6.0,15.0,79,0.01,,,0.01,97.0,meteobridge,2016-02-10 14:49:00,
2016-02-10 09:54:00,35.6,30.0,29.63,NW,314,8.9,12.0,80,0.01,,,0.01,100.0,meteobridge,2016-02-10 14:54:00,
2016-02-10 09:59:00,35.4,29.3,29.63,NNW,333,10.1,11.0,78,0.01,,,0.01,105.0,meteobridge,2016-02-10 14:59:00,
2016-02-10 10:05:00,35.4,29.3,29.64,NW,321,13.0,18.0,78,0.01,,,0.01,130.0,meteobridge,2016-02-10 15:05:00,
2016-02-10 10:10:00,35.2,29.3,29.63,NNW,340,6.0,12.0,79,0.01,,,0.01,137.0,meteobridge,2016-02-10 15:10:00,
2016-02-10 10:15:00,35.8,29.8,29.63,West,274,6.0,10.0,79,0.01,,,0.01,142.0,meteobridge,2016-02-10 15:15:00,
2016-02-10 10:20:00,36.0,29.8,29.64,NNW,336,8.9,13.0,78,0.01,,,0.01,127.0,meteobridge,2016-02-10 15:20:00,
2016-02-10 10:25:00,35.4,29.3,29.63,NW,317,4.9,14.0,78,0.01,,,0.01,107.0,meteobridge,2016-02-10 15:25:00,
2016-02-10 10:30:00,35.8,29.8,29.63,West,281,13.0,14.0,79,0.01,,,0.01,104.0,meteobridge,2016-02-10 15:30:00,
2016-02-10 10:36:00,35.6,29.1,29.63,NNW,345,8.9,15.0,77,0.01,,,0.01,84.0,meteobridge,2016-02-10 15:36:00,
2016-02-10 10:41:00,35.4,28.9,29.63,WSW,257,4.0,14.0,77,0.01,,,0.01,127.0,meteobridge,2016-02-10 15:41:00,
2016-02-10 10:46:00,35.8,29.3,29.63,NW,304,6.9,14.0,77,0.00,,,0.01,153.0,meteobridge,2016-02-10 15:46:00,
2016-02-10 10:56:00,36.0,29.5,29.63,WNW,300,11.0,13.0,77,0.00,,,0.01,199.0,meteobridge,2016-02-10 15:56:00,
2016-02-10 11:01:00,36.0,29.5,29.63,NW,307,2.9,8.0,77,0.00,,,0.01,197.0,meteobridge,2016-02-10 16:01:00,
2016-02-10 11:06:00,36.3,29.5,29.63,NW,311,6.9,13.0,76,0.00,,,0.01,336.0,meteobridge,2016-02-10 16:06:00,
2016-02-10 11:11:00,36.3,28.8,29.63,NW,306,11.0,15.0,74,0.00,,,0.01,246.0,meteobridge,2016-02-10 16:11:00,
2016-02-10 11:21:00,36.7,28.8,29.63,NW,309,10.1,14.0,73,0.00,,,0.01,241.0,meteobridge,2016-02-10 16:21:00,
2016-02-10 11:26:00,36.3,28.2,29.62,NW,320,10.1,16.0,72,0.00,,,0.01,195.0,meteobridge,2016-02-10 16:26:00,
2016-02-10 11:31:00,36.5,28.8,29.62,NW,311,8.1,11.0,73,0.00,,,0.01,169.0,meteobridge,2016-02-10 16:31:00,
2016-02-10 11:36:00,37.0,28.2,29.62,NW,307,10.1,17.0,70,0.00,,,0.01,221.0,meteobridge,2016-02-10 16:36:00,
2016-02-10 11:41:00,36.9,28.0,29.62,NNW,329,8.1,19.0,70,0.00,,,0.01,218.0,meteobridge,2016-02-10 16:41:00,
2016-02-10 11:52:00,37.2,27.3,29.62,NW,321,8.1,13.0,67,0.00,,,0.01,146.0,meteobridge,2016-02-10 16:52:00,
2016-02-10 11:57:00,36.9,27.3,29.62,NW,319,6.0,11.0,68,0.00,,,0.01,229.0,meteobridge,2016-02-10 16:57:00,
2016-02-10 12:02:00,37.6,28.0,29.62,WNW,298,8.9,11.0,68,0.00,,,0.01,230.0,meteobridge,2016-02-10 17:02:00,
2016-02-10 12:07:00,37.2,27.0,29.62,NW,311,8.1,20.0,66,0.00,,,0.01,221.0,meteobridge,2016-02-10 17:07:00,
2016-02-10 12:12:00,37.6,26.6,29.61,NNW,342,15.0,18.0,64,0.00,,,0.01,236.0,meteobridge,2016-02-10 17:12:00,
2016-02-10 12:17:00,37.4,26.4,29.61,West,261,8.9,17.0,64,0.00,,,0.01,237.0,meteobridge,2016-02-10 17:17:00,
2016-02-10 12:22:00,37.6,26.6,29.61,NW,304,8.1,13.0,64,0.00,,,0.01,279.0,meteobridge,2016-02-10 17:22:00,
2016-02-10 12:27:00,37.4,25.9,29.61,WNW,295,8.9,10.0,63,0.00,,,0.01,682.0,meteobridge,2016-02-10 17:27:00,
2016-02-10 12:32:00,38.1,27.0,29.60,WSW,248,6.0,13.0,64,0.00,,,0.01,264.0,meteobridge,2016-02-10 17:32:00,
2016-02-10 12:38:00,39.0,27.9,29.60,WNW,300,2.0,9.0,64,0.00,,,0.01,258.0,meteobridge,2016-02-10 17:38:00,
2016-02-10 12:43:00,39.4,27.9,29.60,North,1,6.9,11.0,63,0.00,,,0.01,178.0,meteobridge,2016-02-10 17:43:00,
2016-02-10 12:48:00,38.7,27.5,29.60,WNW,299,8.9,17.0,64,0.00,,,0.01,132.0,meteobridge,2016-02-10 17:48:00,
2016-02-10 12:53:00,38.3,26.8,29.60,West,273,8.1,13.0,63,0.00,,,0.01,135.0,meteobridge,2016-02-10 17:53:00,
2016-02-10 12:58:00,38.1,26.6,29.60,NW,307,2.9,10.0,63,0.00,,,0.01,123.0,meteobridge,2016-02-10 17:58:00,
2016-02-10 13:03:00,38.5,25.9,29.60,WNW,294,4.9,15.0,60,0.00,,,0.01,142.0,meteobridge,2016-02-10 18:03:00,
2016-02-10 13:08:00,38.7,25.5,29.60,NW,313,4.0,15.0,59,0.00,,,0.01,121.0,meteobridge,2016-02-10 18:08:00,
2016-02-10 13:13:00,38.8,25.7,29.60,NW,317,15.0,16.0,59,0.00,,,0.01,95.0,meteobridge,2016-02-10 18:13:00,
2016-02-10 13:18:00,38.5,25.0,29.60,NW,304,19.9,20.0,58,0.00,,,0.01,104.0,meteobridge,2016-02-10 18:18:00,
2016-02-10 13:23:00,38.5,25.0,29.60,NW,312,6.0,12.0,58,0.00,,,0.01,135.0,meteobridge,2016-02-10 18:23:00,
2016-02-10 13:28:00,38.5,24.6,29.60,NW,320,12.1,15.0,57,0.00,,,0.01,116.0,meteobridge,2016-02-10 18:28:00,
2016-02-10 13:38:00,38.5,23.7,29.60,NW,308,10.1,13.0,55,0.00,,,0.01,102.0,meteobridge,2016-02-10 18:38:00,
2016-02-10 13:44:00,38.5,23.7,29.61,NW,319,8.1,13.0,55,0.00,,,0.01,81.0,meteobridge,2016-02-10 18:44:00,
2016-02-10 13:49:00,38.5,23.7,29.61,NW,326,8.9,18.0,55,0.00,,,0.01,72.0,meteobridge,2016-02-10 18:49:00,
2016-02-10 13:54:00,38.1,23.4,29.61,NW,325,8.1,14.0,55,0.00,,,0.01,72.0,meteobridge,2016-02-10 18:54:00,
2016-02-10 13:59:00,38.1,23.4,29.61,NW,320,16.1,19.0,55,0.00,,,0.01,84.0,meteobridge,2016-02-10 18:59:00,
2016-02-10 14:04:00,37.9,22.8,29.61,WNW,297,6.0,16.0,54,0.00,,,0.01,105.0,meteobridge,2016-02-10 19:04:00,
2016-02-10 14:09:00,38.1,22.5,29.61,NNW,331,4.0,13.0,53,0.00,,,0.01,123.0,meteobridge,2016-02-10 19:09:00,
2016-02-10 14:14:00,38.5,22.5,29.61,NW,311,6.0,14.0,52,0.00,,,0.01,137.0,meteobridge,2016-02-10 19:14:00,
2016-02-10 14:19:00,38.5,22.5,29.61,NW,321,14.1,14.1,52,0.00,,,0.01,149.0,meteobridge,2016-02-10 19:19:00,
2016-02-10 14:24:00,38.5,22.8,29.62,NNW,338,12.1,15.0,53,0.00,,,0.01,98.0,meteobridge,2016-02-10 19:24:00,
2016-02-10 14:35:00,38.1,23.0,29.62,NNW,335,11.0,18.0,54,0.00,,,0.01,70.0,meteobridge,2016-02-10 19:35:00,
2016-02-10 14:40:00,37.9,22.3,29.62,NW,320,6.0,16.0,53,0.00,,,0.01,90.0,meteobridge,2016-02-10 19:40:00,
2016-02-10 14:45:00,38.1,22.5,29.62,NW,308,12.1,19.0,53,0.00,,,0.01,113.0,meteobridge,2016-02-10 19:45:00,
2016-02-10 14:50:00,38.1,22.5,29.62,NNW,333,6.0,15.0,53,0.00,,,0.01,102.0,meteobridge,2016-02-10 19:50:00,
2016-02-10 14:55:00,38.3,22.6,29.62,WNW,301,8.9,12.0,53,0.00,,,0.01,83.0,meteobridge,2016-02-10 19:55:00,
2016-02-10 15:00:00,38.5,22.5,29.62,NW,317,10.1,15.0,52,0.00,,,0.01,86.0,meteobridge,2016-02-10 20:00:00,
2016-02-10 15:05:00,38.5,22.8,29.62,WNW,286,12.1,19.0,53,0.00,,,0.01,67.0,meteobridge,2016-02-10 20:05:00,
2016-02-10 15:10:00,38.3,22.6,29.63,WNW,285,6.9,12.0,53,0.00,,,0.01,81.0,meteobridge,2016-02-10 20:10:00,
2016-02-10 15:15:00,38.3,23.2,29.63,WNW,295,12.1,17.0,54,0.00,,,0.01,118.0,meteobridge,2016-02-10 20:15:00,
2016-02-10 15:25:00,38.1,22.5,29.63,NW,322,12.1,12.1,53,0.00,,,0.01,111.0,meteobridge,2016-02-10 20:25:00,
2016-02-10 15:30:00,38.5,23.4,29.64,NW,321,8.1,13.0,54,0.00,,,0.01,109.0,meteobridge,2016-02-10 20:30:00,
2016-02-10 15:35:00,38.1,22.5,29.64,NW,311,8.9,16.0,53,0.00,,,0.01,120.0,meteobridge,2016-02-10 20:35:00,
2016-02-10 15:40:00,38.1,22.1,29.64,WNW,284,8.1,15.0,52,0.00,,,0.01,116.0,meteobridge,2016-02-10 20:40:00,
2016-02-10 15:45:00,38.5,22.5,29.64,NNW,334,4.0,12.0,52,0.00,,,0.01,107.0,meteobridge,2016-02-10 20:45:00,
2016-02-10 15:50:00,38.8,22.6,29.64,NW,304,4.9,7.0,52,0.00,,,0.01,114.0,meteobridge,2016-02-10 20:50:00,
2016-02-10 15:55:00,38.8,21.7,29.65,NW,316,6.9,16.0,50,0.00,,,0.01,105.0,meteobridge,2016-02-10 20:55:00,
2016-02-10 16:01:00,38.7,22.1,29.65,NW,319,6.9,15.0,51,0.00,,,0.01,69.0,meteobridge,2016-02-10 21:01:00,
2016-02-10 16:06:00,38.7,22.1,29.65,West,278,13.0,15.0,51,0.00,,,0.01,56.0,meteobridge,2016-02-10 21:06:00,
2016-02-10 16:11:00,38.5,21.4,29.65,NW,311,6.9,13.0,50,0.00,,,0.01,91.0,meteobridge,2016-02-10 21:11:00,
2016-02-10 16:16:00,38.7,21.6,29.65,NW,311,6.9,12.0,50,0.00,,,0.01,54.0,meteobridge,2016-02-10 21:16:00,
2016-02-10 16:21:00,38.5,21.4,29.65,WSW,247,4.0,7.0,50,0.00,,,0.01,46.0,meteobridge,2016-02-10 21:21:00,
2016-02-10 16:26:00,38.7,21.2,29.65,WNW,291,6.0,12.0,49,0.00,,,0.01,33.0,meteobridge,2016-02-10 21:26:00,
2016-02-10 16:36:00,38.3,21.7,29.66,West,278,8.1,11.0,51,0.00,,,0.01,28.0,meteobridge,2016-02-10 21:36:00,
2016-02-10 16:41:00,38.1,21.2,29.66,WNW,299,8.1,15.0,50,0.00,,,0.01,23.0,meteobridge,2016-02-10 21:41:00,
2016-02-10 16:46:00,37.9,21.4,29.67,West,266,4.9,18.0,51,0.00,,,0.01,32.0,meteobridge,2016-02-10 21:46:00,
2016-02-10 16:51:00,37.9,21.9,29.67,NW,321,6.9,15.0,52,0.00,,,0.01,25.0,meteobridge,2016-02-10 21:51:00,
2016-02-10 16:56:00,37.8,21.7,29.67,WNW,288,8.9,15.0,52,0.00,,,0.01,21.0,meteobridge,2016-02-10 21:56:00,
2016-02-10 17:01:00,37.9,21.9,29.67,WNW,295,10.1,14.0,52,0.00,,,0.01,16.0,meteobridge,2016-02-10 22:01:00,
2016-02-10 17:07:00,37.8,21.7,29.67,WNW,290,4.9,14.0,52,0.00,,,0.01,12.0,meteobridge,2016-02-10 22:07:00,
2016-02-10 17:12:00,37.9,22.3,29.67,NW,314,12.1,15.0,53,0.00,,,0.01,9.0,meteobridge,2016-02-10 22:12:00,
2016-02-10 17:17:00,37.8,21.2,29.68,NNW,328,6.0,18.0,51,0.00,,,0.01,5.0,meteobridge,2016-02-10 22:17:00,
2016-02-10 17:22:00,37.6,21.6,29.68,WNW,301,11.0,18.0,52,0.00,,,0.01,0.0,meteobridge,2016-02-10 22:22:00,
2016-02-10 17:32:00,37.2,21.2,29.69,WNW,302,16.1,17.0,52,0.00,,,0.01,0.0,meteobridge,2016-02-10 22:32:00,
2016-02-10 17:37:00,37.0,21.0,29.69,West,279,10.1,17.0,52,0.00,,,0.01,0.0,meteobridge,2016-02-10 22:37:00,
2016-02-10 17:42:00,37.2,21.2,29.69,West,272,14.1,14.1,52,0.00,,,0.01,0.0,meteobridge,2016-02-10 22:42:00,
2016-02-10 17:47:00,37.0,21.0,29.70,WNW,293,14.1,19.0,52,0.00,,,0.01,0.0,meteobridge,2016-02-10 22:47:00,
2016-02-10 17:52:00,37.0,21.0,29.70,West,267,17.0,17.0,52,0.00,,,0.01,0.0,meteobridge,2016-02-10 22:52:00,
2016-02-10 18:02:00,36.3,20.8,29.70,WNW,296,8.1,14.0,53,0.00,,,0.01,0.0,meteobridge,2016-02-10 23:02:00,
2016-02-10 18:07:00,36.1,20.7,29.70,West,265,8.9,18.0,53,0.00,,,0.01,0.0,meteobridge,2016-02-10 23:07:00,
2016-02-10 18:12:00,36.1,20.7,29.71,West,259,11.0,20.0,53,0.00,,,0.01,0.0,meteobridge,2016-02-10 23:12:00,
2016-02-10 18:17:00,36.0,20.5,29.71,WNW,293,13.0,18.0,53,0.00,,,0.01,0.0,meteobridge,2016-02-10 23:17:00,
2016-02-10 18:22:00,35.8,20.3,29.71,WNW,293,8.1,18.0,53,0.00,,,0.01,0.0,meteobridge,2016-02-10 23:22:00,
2016-02-10 18:27:00,35.8,20.3,29.72,West,279,11.0,19.0,53,0.00,,,0.01,0.0,meteobridge,2016-02-10 23:27:00,
2016-02-10 18:32:00,35.6,19.8,29.72,West,280,10.1,20.0,52,0.00,,,0.01,0.0,meteobridge,2016-02-10 23:32:00,
2016-02-10 18:37:00,35.4,19.9,29.72,WNW,283,14.1,20.0,53,0.00,,,0.01,0.0,meteobridge,2016-02-10 23:37:00,
2016-02-10 18:42:00,35.4,19.9,29.72,West,280,16.1,18.0,53,0.00,,,0.01,0.0,meteobridge,2016-02-10 23:42:00,
2016-02-10 18:47:00,35.2,19.4,29.72,NNW,347,6.9,17.0,52,0.00,,,0.01,0.0,meteobridge,2016-02-10 23:47:00,
2016-02-10 18:52:00,35.1,19.2,29.72,West,280,6.0,25.0,52,0.00,,,0.01,0.0,meteobridge,2016-02-10 23:52:00,
2016-02-10 18:57:00,34.9,19.0,29.72,WNW,295,16.1,23.0,52,0.00,,,0.01,0.0,meteobridge,2016-02-10 23:57:00,
2016-02-10 19:07:00,34.9,19.4,29.72,WNW,294,13.0,22.0,53,0.00,,,0.01,0.0,meteobridge,2016-02-11 00:07:00,
2016-02-10 19:12:00,34.5,19.2,29.72,WNW,282,17.0,21.0,53,0.00,,,0.01,0.0,meteobridge,2016-02-11 00:12:00,
2016-02-10 19:17:00,34.5,19.2,29.72,NNW,330,13.0,14.0,53,0.00,,,0.01,0.0,meteobridge,2016-02-11 00:17:00,
2016-02-10 19:22:00,34.5,19.2,29.72,WNW,288,15.0,18.0,53,0.00,,,0.01,0.0,meteobridge,2016-02-11 00:22:00,
2016-02-10 19:28:00,34.5,19.2,29.72,West,268,10.1,19.0,53,0.00,,,0.01,0.0,meteobridge,2016-02-11 00:28:00,
2016-02-10 19:33:00,34.3,19.0,29.72,WNW,299,19.9,26.0,53,0.00,,,0.01,0.0,meteobridge,2016-02-11 00:33:00,
2016-02-10 19:38:00,34.3,19.0,29.72,West,281,8.1,18.0,53,0.00,,,0.01,0.0,meteobridge,2016-02-11 00:38:00,
2016-02-10 19:43:00,34.3,19.4,29.72,West,274,8.1,17.0,54,0.00,,,0.01,0.0,meteobridge,2016-02-11 00:43:00,
2016-02-10 19:48:00,34.2,19.2,29.72,West,276,10.1,18.0,54,0.00,,,0.01,0.0,meteobridge,2016-02-11 00:48:00,
2016-02-10 19:53:00,34.3,19.4,29.72,NW,314,4.9,19.0,54,0.00,,,0.01,0.0,meteobridge,2016-02-11 00:53:00,
2016-02-10 19:58:00,34.2,19.2,29.73,West,277,6.9,12.0,54,0.00,,,0.01,0.0,meteobridge,2016-02-11 00:58:00,
2016-02-10 20:03:00,34.2,19.2,29.73,NW,309,8.1,14.0,54,0.00,,,0.01,0.0,meteobridge,2016-02-11 01:03:00,
2016-02-10 20:08:00,34.0,19.0,29.72,WNW,299,12.1,19.0,54,0.00,,,0.01,0.0,meteobridge,2016-02-11 01:08:00,
2016-02-10 20:13:00,34.0,19.0,29.73,NW,311,10.1,24.0,54,0.00,,,0.01,0.0,meteobridge,2016-02-11 01:13:00,
2016-02-10 20:18:00,33.8,18.9,29.73,WNW,288,10.1,18.0,54,0.00,,,0.01,0.0,meteobridge,2016-02-11 01:18:00,
2016-02-10 20:28:00,33.8,19.4,29.73,NW,313,8.9,17.0,55,0.00,,,0.01,0.0,meteobridge,2016-02-11 01:28:00,
2016-02-10 20:33:00,33.6,19.2,29.73,NW,304,15.0,15.0,55,0.00,,,0.01,0.0,meteobridge,2016-02-11 01:33:00,
2016-02-10 20:38:00,33.6,19.2,29.73,WNW,293,8.1,16.0,55,0.00,,,0.01,0.0,meteobridge,2016-02-11 01:38:00,
2016-02-10 20:48:00,33.4,19.0,29.73,NNW,348,6.0,17.0,55,0.00,,,0.01,0.0,meteobridge,2016-02-11 01:48:00,
2016-02-10 20:53:00,33.4,19.0,29.74,NW,316,6.0,12.0,55,0.00,,,0.01,0.0,meteobridge,2016-02-11 01:53:00,
2016-02-10 21:08:00,33.1,19.0,29.73,West,277,15.0,15.0,56,0.00,,,0.01,0.0,meteobridge,2016-02-11 02:08:00,
2016-02-10 21:18:00,33.1,19.6,29.74,West,259,8.9,9.0,57,0.00,,,0.01,0.0,meteobridge,2016-02-11 02:18:00,
2016-02-10 21:28:00,32.7,18.7,29.74,WNW,301,8.9,14.0,56,0.00,,,0.01,0.0,meteobridge,2016-02-11 02:28:00,
2016-02-10 21:33:00,32.7,18.7,29.74,WNW,293,13.0,15.0,56,0.00,,,0.01,0.0,meteobridge,2016-02-11 02:33:00,
2016-02-10 21:39:00,32.5,19.0,29.74,West,270,6.0,12.0,57,0.00,,,0.01,0.0,meteobridge,2016-02-11 02:39:00,
2016-02-10 21:44:00,32.5,19.0,29.74,NNW,328,8.1,10.0,57,0.00,,,0.01,0.0,meteobridge,2016-02-11 02:44:00,
2016-02-10 21:49:00,32.5,19.0,29.74,NW,304,4.0,15.0,57,0.00,,,0.01,0.0,meteobridge,2016-02-11 02:49:00,
2016-02-10 21:54:00,32.5,19.0,29.74,NW,311,6.0,12.0,57,0.00,,,0.01,0.0,meteobridge,2016-02-11 02:54:00,
2016-02-10 21:59:00,32.5,19.0,29.75,NW,319,16.1,17.0,57,0.00,,,0.01,0.0,meteobridge,2016-02-11 02:59:00,
2016-02-10 22:04:00,32.5,19.0,29.75,NW,314,13.0,18.0,57,0.00,,,0.01,0.0,meteobridge,2016-02-11 03:04:00,
2016-02-10 22:09:00,32.4,18.5,29.75,WNW,298,8.1,14.0,56,0.00,,,0.01,0.0,meteobridge,2016-02-11 03:09:00,
2016-02-10 22:14:00,32.4,18.5,29.75,NW,321,13.0,19.0,56,0.00,,,0.01,0.0,meteobridge,2016-02-11 03:14:00,
2016-02-10 22:19:00,32.2,18.3,29.75,West,275,6.0,13.0,56,0.00,,,0.01,0.0,meteobridge,2016-02-11 03:19:00,
2016-02-10 22:24:00,32.2,18.3,29.75,WNW,302,8.1,13.0,56,0.00,,,0.01,0.0,meteobridge,2016-02-11 03:24:00,
2016-02-10 22:29:00,32.2,18.3,29.75,NW,323,10.1,14.0,56,0.00,,,0.01,0.0,meteobridge,2016-02-11 03:29:00,
2016-02-10 22:34:00,32.2,18.3,29.75,NW,304,10.1,15.0,56,0.00,,,0.01,0.0,meteobridge,2016-02-11 03:34:00,
2016-02-10 22:39:00,32.2,17.8,29.75,NNW,331,8.1,22.0,55,0.00,,,0.01,0.0,meteobridge,2016-02-11 03:39:00,
2016-02-10 22:44:00,31.8,18.0,29.75,NNW,330,4.0,15.0,56,0.00,,,0.01,0.0,meteobridge,2016-02-11 03:44:00,
2016-02-10 22:49:00,31.8,18.0,29.75,NW,319,8.9,19.0,56,0.00,,,0.01,0.0,meteobridge,2016-02-11 03:49:00,
2016-02-10 22:54:00,32.0,18.1,29.75,NNW,346,6.0,22.0,56,0.00,,,0.01,0.0,meteobridge,2016-02-11 03:54:00,
2016-02-10 22:59:00,31.8,18.0,29.75,North,353,6.0,14.0,56,0.00,,,0.01,0.0,meteobridge,2016-02-11 03:59:00,
2016-02-10 23:04:00,31.6,17.8,29.76,NW,320,8.1,19.0,56,0.00,,,0.01,0.0,meteobridge,2016-02-11 04:04:00,
2016-02-10 23:09:00,31.6,17.8,29.75,NW,311,10.1,17.0,56,0.00,,,0.01,0.0,meteobridge,2016-02-11 04:09:00,
2016-02-10 23:14:00,31.6,17.8,29.75,West,278,2.9,14.0,56,0.00,,,0.01,0.0,meteobridge,2016-02-11 04:14:00,
2016-02-10 23:19:00,31.6,17.8,29.75,NW,318,10.1,16.0,56,0.00,,,0.01,0.0,meteobridge,2016-02-11 04:19:00,
2016-02-10 23:24:00,31.5,17.6,29.75,WNW,297,12.1,18.0,56,0.00,,,0.01,0.0,meteobridge,2016-02-11 04:24:00,
2016-02-10 23:29:00,31.5,17.6,29.75,NW,308,17.9,22.0,56,0.00,,,0.01,0.0,meteobridge,2016-02-11 04:29:00,